23FL weather

Gyro Town Usa STOLport
Wimauma, Florida, United States

Public forecast

Using degrees Fahrenheit for public forecast. Weather courtesy of forecast.io.

Closest aviation weather report (METAR) to Gyro Town Usa STOLport

Closest report is Peter O Knight Airport, 17.6 nm (32.7 km) NW. Retrieved 2019/12/07 21:15 UTC (15 minutes ago):

KTPF 072115Z AUTO 25003KT 10SM BKN110 23/11 A3013 RMK AO2

Closest aviation forecast (TAF) to Gyro Town Usa STOLport

Closest forecast is Mac Dill Air Force Base, 17.7 nm (32.8 km) NW. Retrieved 2019/12/07 17:12 UTC (4 hours ago):

TAF KMCF 071700Z 0717/0823 VRB06KT 9999 FEW100 QNH3011INS BECMG 0808/0809 VRB06KT 9999 SCT050 QNH3017INS BECMG 0819/0820 VRB06KT 9999 SCT200 QNH3010INS TX23/0720Z TN16/0810Z